Aviation Digital Data Service (ADDS)

Output produced by METARs form (2043 UTC 26 September 2016)
found at http://aviationweather.gov/adds/metars/
 
KGSO 261739Z 2618/2718 18004KT P6SM OVC015 
     TEMPO 2621/2624 5SM -SHRA BKN025 
     FM270000 18003KT P6SM SCT035 OVC050 
     FM270600 22003KT 4SM -SHRA OVC015